Time,TemperatureF,DewpointF,PressureIn,WindDirection,WindDirectionDegrees,WindSpeedMPH,WindSpeedGustMPH,Humidity,HourlyPrecipIn,Conditions,Clouds,dailyrainin,SoftwareType,DateUTC
2013-09-08 00:02:00,57.8,55.0,29.92,WSW,252,0.0,1.0,90,0.00,,,0.00,weatherlink.com 1.10,2013-09-08 04:02:00,
2013-09-08 00:17:00,56.9,54.0,29.93,West,259,0.0,1.0,91,0.00,,,0.00,weatherlink.com 1.10,2013-09-08 04:17:00,
2013-09-08 00:32:00,56.1,54.0,29.93,WSW,250,0.0,1.0,92,0.00,,,0.00,weatherlink.com 1.10,2013-09-08 04:32:00,
2013-09-08 00:47:00,55.6,53.0,29.94,West,259,0.0,2.0,92,0.00,,,0.00,weatherlink.com 1.10,2013-09-08 04:47:00,
2013-09-08 01:02:00,55.7,53.0,29.94,SW,225,0.0,4.0,91,0.00,,,0.00,weatherlink.com 1.10,2013-09-08 05:02:00,
2013-09-08 01:17:00,55.1,53.0,29.94,West,264,0.0,2.0,92,0.00,,,0.00,weatherlink.com 1.10,2013-09-08 05:17:00,
2013-09-08 01:32:00,54.5,52.0,29.95,WSW,254,0.0,2.0,92,0.00,,,0.00,weatherlink.com 1.10,2013-09-08 05:32:00,
2013-09-08 01:47:00,53.7,52.0,29.95,WSW,248,0.0,1.0,93,0.00,,,0.00,weatherlink.com 1.10,2013-09-08 05:47:00,
2013-09-08 02:02:00,52.8,51.0,29.95,WSW,240,0.0,1.0,94,0.00,,,0.00,weatherlink.com 1.10,2013-09-08 06:02:00,
2013-09-08 02:17:00,52.0,51.0,29.96,SW,220,0.0,0.0,95,0.00,,,0.00,weatherlink.com 1.10,2013-09-08 06:17:00,
2013-09-08 02:32:00,51.4,50.0,29.95,SW,228,0.0,0.0,96,0.00,,,0.00,weatherlink.com 1.10,2013-09-08 06:32:00,
2013-09-08 02:47:00,50.9,50.0,29.96,SW,228,0.0,0.0,96,0.00,,,0.00,weatherlink.com 1.10,2013-09-08 06:47:00,
2013-09-08 03:02:00,50.6,50.0,29.96,SW,228,0.0,0.0,96,0.00,,,0.00,weatherlink.com 1.10,2013-09-08 07:02:00,
2013-09-08 03:17:00,50.3,50.0,29.97,SW,228,0.0,0.0,97,0.00,,,0.00,weatherlink.com 1.10,2013-09-08 07:17:00,
2013-09-08 03:32:00,50.1,49.0,29.97,WSW,248,0.0,0.0,97,0.00,,,0.00,weatherlink.com 1.10,2013-09-08 07:32:00,
2013-09-08 03:47:00,50.3,50.0,29.98,WSW,252,0.0,0.0,97,0.00,,,0.00,weatherlink.com 1.10,2013-09-08 07:47:00,
2013-09-08 04:02:00,52.5,52.0,29.98,NNE,18,1.0,6.0,97,0.00,,,0.00,weatherlink.com 1.10,2013-09-08 08:02:00,
2013-09-08 04:17:00,57.2,53.0,29.98,NNE,30,5.0,11.0,87,0.00,,,0.00,weatherlink.com 1.10,2013-09-08 08:17:00,
2013-09-08 04:32:00,56.6,53.0,29.99,NNE,23,6.0,7.0,86,0.00,,,0.00,weatherlink.com 1.10,2013-09-08 08:32:00,
2013-09-08 04:47:00,56.3,52.0,29.99,NNW,347,2.0,6.0,86,0.00,,,0.00,weatherlink.com 1.10,2013-09-08 08:47:00,
2013-09-08 05:02:00,55.3,52.0,30.00,North,352,5.0,6.0,88,0.00,,,0.00,weatherlink.com 1.10,2013-09-08 09:02:00,
2013-09-08 05:17:00,54.7,51.0,30.01,WNW,296,0.0,6.0,88,0.00,,,0.00,weatherlink.com 1.10,2013-09-08 09:17:00,
2013-09-08 05:32:00,52.7,51.0,30.02,NW,321,0.0,1.0,92,0.00,,,0.00,weatherlink.com 1.10,2013-09-08 09:32:00,
2013-09-08 05:47:00,55.1,51.0,30.02,NNE,20,7.0,7.0,87,0.00,,,0.00,weatherlink.com 1.10,2013-09-08 09:47:00,
2013-09-08 06:02:00,55.3,52.0,30.02,NNE,27,5.0,6.0,87,0.00,,,0.00,weatherlink.com 1.10,2013-09-08 10:02:00,
2013-09-08 06:18:00,55.1,51.0,30.03,North,4,2.0,5.0,85,0.00,,,0.00,weatherlink.com 1.10,2013-09-08 10:18:00,
2013-09-08 06:33:00,53.2,50.0,30.03,WNW,302,0.0,4.0,90,0.00,,,0.00,weatherlink.com 1.10,2013-09-08 10:33:00,
2013-09-08 06:48:00,54.4,51.0,30.04,NNE,24,2.0,5.0,88,0.00,,,0.00,weatherlink.com 1.10,2013-09-08 10:48:00,
2013-09-08 07:03:00,54.5,50.0,30.04,NNE,27,3.0,5.0,86,0.00,,,0.00,weatherlink.com 1.10,2013-09-08 11:03:00,
2013-09-08 07:18:00,54.8,51.0,30.05,NNE,27,3.0,5.0,86,0.00,,,0.00,weatherlink.com 1.10,2013-09-08 11:18:00,
2013-09-08 07:33:00,55.5,51.0,30.05,NNE,33,4.0,5.0,85,0.00,,,0.00,weatherlink.com 1.10,2013-09-08 11:33:00,
2013-09-08 07:48:00,54.8,50.0,30.05,NE,40,5.0,6.0,85,0.00,,,0.00,weatherlink.com 1.10,2013-09-08 11:48:00,
2013-09-08 08:03:00,55.1,51.0,30.06,NE,39,4.0,5.0,85,0.00,,,0.00,weatherlink.com 1.10,2013-09-08 12:03:00,
2013-09-08 08:18:00,55.7,51.0,30.06,NE,34,7.0,7.0,84,0.00,,,0.00,weatherlink.com 1.10,2013-09-08 12:18:00,
2013-09-08 08:33:00,56.1,51.0,30.05,NE,47,6.0,8.0,84,0.00,,,0.00,weatherlink.com 1.10,2013-09-08 12:33:00,
2013-09-08 08:48:00,56.1,51.0,30.06,NNE,27,9.0,11.0,83,0.00,,,0.00,weatherlink.com 1.10,2013-09-08 12:48:00,
2013-09-08 09:03:00,55.9,51.0,30.06,NNE,27,8.0,11.0,84,0.00,,,0.00,weatherlink.com 1.10,2013-09-08 13:03:00,
2013-09-08 09:18:00,55.9,50.0,30.06,North,5,7.0,9.0,81,0.00,,,0.00,weatherlink.com 1.10,2013-09-08 13:18:00,
2013-09-08 09:33:00,56.2,51.0,30.06,NNE,12,3.0,8.0,82,0.00,,,0.00,weatherlink.com 1.10,2013-09-08 13:33:00,
2013-09-08 09:48:00,56.4,51.0,30.06,NNE,27,11.0,11.0,83,0.00,,,0.00,weatherlink.com 1.10,2013-09-08 13:48:00,
2013-09-08 10:03:00,56.6,51.0,30.07,NE,35,6.0,10.0,80,0.00,,,0.00,weatherlink.com 1.10,2013-09-08 14:03:00,
2013-09-08 10:18:00,56.3,50.0,30.06,NE,46,7.0,11.0,78,0.00,,,0.00,weatherlink.com 1.10,2013-09-08 14:18:00,
2013-09-08 10:33:00,56.7,50.0,30.06,NE,39,11.0,11.0,79,0.00,,,0.00,weatherlink.com 1.10,2013-09-08 14:33:00,
2013-09-08 10:48:00,57.3,49.0,30.06,East,91,2.0,7.0,75,0.00,,,0.00,weatherlink.com 1.10,2013-09-08 14:48:00,
2013-09-08 11:03:00,57.9,51.0,30.06,East,93,5.0,6.0,78,0.00,,,0.00,weatherlink.com 1.10,2013-09-08 15:03:00,
2013-09-08 11:18:00,58.4,49.0,30.06,East,86,2.0,9.0,72,0.00,,,0.00,weatherlink.com 1.10,2013-09-08 15:18:00,
2013-09-08 11:33:00,58.4,50.0,30.06,ENE,60,3.0,7.0,74,0.00,,,0.00,weatherlink.com 1.10,2013-09-08 15:33:00,
2013-09-08 11:48:00,58.7,49.0,30.06,ENE,62,1.0,6.0,70,0.00,,,0.00,weatherlink.com 1.10,2013-09-08 15:48:00,
2013-09-08 12:03:00,59.6,49.0,30.06,NNE,13,0.0,4.0,69,0.00,,,0.00,weatherlink.com 1.10,2013-09-08 16:03:00,
2013-09-08 12:18:00,60.2,50.0,30.06,NNE,18,0.0,3.0,69,0.00,,,0.00,weatherlink.com 1.10,2013-09-08 16:18:00,
2013-09-08 12:33:00,59.9,51.0,30.06,North,11,3.0,6.0,73,0.00,,,0.00,weatherlink.com 1.10,2013-09-08 16:33:00,
2013-09-08 12:48:00,60.7,49.0,30.06,NW,326,0.0,4.0,66,0.00,,,0.00,weatherlink.com 1.10,2013-09-08 16:48:00,
2013-09-08 13:03:00,61.4,50.0,30.06,NE,42,0.0,4.0,67,0.00,,,0.00,weatherlink.com 1.10,2013-09-08 17:03:00,
2013-09-08 13:18:00,61.4,50.0,30.05,NNE,22,1.0,5.0,66,0.00,,,0.00,weatherlink.com 1.10,2013-09-08 17:18:00,
2013-09-08 13:33:00,62.2,51.0,30.04,ESE,103,1.0,3.0,66,0.00,,,0.00,weatherlink.com 1.10,2013-09-08 17:33:00,
2013-09-08 13:48:00,62.9,50.0,30.04,SE,131,3.0,6.0,64,0.00,,,0.00,weatherlink.com 1.10,2013-09-08 17:48:00,
2013-09-08 14:03:00,62.9,51.0,30.03,SE,141,2.0,8.0,66,0.00,,,0.00,weatherlink.com 1.10,2013-09-08 18:03:00,
2013-09-08 14:18:00,63.5,49.0,30.03,ESE,117,2.0,8.0,60,0.00,,,0.00,weatherlink.com 1.10,2013-09-08 18:18:00,
2013-09-08 14:33:00,63.6,51.0,30.04,ESE,109,4.0,8.0,64,0.00,,,0.00,weatherlink.com 1.10,2013-09-08 18:33:00,
2013-09-08 14:48:00,63.9,52.0,30.03,SE,132,7.0,8.0,65,0.00,,,0.00,weatherlink.com 1.10,2013-09-08 18:48:00,
2013-09-08 15:03:00,64.1,51.0,30.03,ESE,114,4.0,7.0,62,0.00,,,0.00,weatherlink.com 1.10,2013-09-08 19:03:00,
2013-09-08 15:18:00,64.2,51.0,30.02,SSE,165,5.0,8.0,63,0.00,,,0.00,weatherlink.com 1.10,2013-09-08 19:18:00,
2013-09-08 15:33:00,64.9,51.0,30.03,ESE,113,2.0,3.0,60,0.00,,,0.00,weatherlink.com 1.10,2013-09-08 19:33:00,
2013-09-08 15:48:00,64.9,52.0,30.03,East,89,3.0,3.0,64,0.00,,,0.00,weatherlink.com 1.10,2013-09-08 19:48:00,
2013-09-08 16:03:00,64.4,51.0,30.01,SE,142,2.0,9.0,63,0.00,,,0.00,weatherlink.com 1.10,2013-09-08 20:03:00,
2013-09-08 16:19:00,64.8,53.0,30.01,SE,127,9.0,11.0,65,0.00,,,0.00,weatherlink.com 1.10,2013-09-08 20:19:00,
2013-09-08 16:34:00,64.4,53.0,30.01,SE,135,6.0,11.0,66,0.00,,,0.00,weatherlink.com 1.10,2013-09-08 20:34:00,
2013-09-08 16:49:00,64.6,53.0,30.00,SE,134,6.0,10.0,66,0.00,,,0.00,weatherlink.com 1.10,2013-09-08 20:49:00,
2013-09-08 17:04:00,64.4,54.0,29.99,ESE,106,7.0,9.0,70,0.00,,,0.00,weatherlink.com 1.10,2013-09-08 21:04:00,
2013-09-08 17:19:00,64.4,54.0,29.98,ESE,114,4.0,9.0,68,0.00,,,0.00,weatherlink.com 1.10,2013-09-08 21:19:00,
2013-09-08 17:34:00,64.1,55.0,29.98,SE,131,4.0,8.0,71,0.00,,,0.00,weatherlink.com 1.10,2013-09-08 21:34:00,
2013-09-08 17:49:00,63.4,54.0,29.98,SE,132,5.0,7.0,71,0.00,,,0.00,weatherlink.com 1.10,2013-09-08 21:49:00,
2013-09-08 18:04:00,63.6,54.0,29.97,ESE,105,8.0,8.0,72,0.00,,,0.00,weatherlink.com 1.10,2013-09-08 22:04:00,
2013-09-08 18:19:00,63.7,55.0,29.96,SSE,165,6.0,8.0,72,0.00,,,0.00,weatherlink.com 1.10,2013-09-08 22:19:00,
2013-09-08 18:34:00,63.2,54.0,29.96,SE,135,4.0,7.0,73,0.00,,,0.00,weatherlink.com 1.10,2013-09-08 22:34:00,
2013-09-08 18:49:00,63.0,54.0,29.96,ESE,103,7.0,8.0,73,0.00,,,0.00,weatherlink.com 1.10,2013-09-08 22:49:00,
2013-09-08 19:04:00,62.5,54.0,29.95,SE,136,5.0,9.0,74,0.00,,,0.00,weatherlink.com 1.10,2013-09-08 23:04:00,
2013-09-08 19:19:00,62.1,54.0,29.95,SE,139,5.0,7.0,76,0.00,,,0.00,weatherlink.com 1.10,2013-09-08 23:19:00,
2013-09-08 19:34:00,61.1,54.0,29.95,SSW,208,1.0,7.0,76,0.00,,,0.00,weatherlink.com 1.10,2013-09-08 23:34:00,
2013-09-08 19:49:00,60.1,53.0,29.94,SE,136,3.0,5.0,78,0.00,,,0.00,weatherlink.com 1.10,2013-09-08 23:49:00,
2013-09-08 20:04:00,58.7,53.0,29.94,WSW,252,0.0,3.0,80,0.00,,,0.00,weatherlink.com 1.10,2013-09-09 00:04:00,
2013-09-08 20:19:00,57.9,52.0,29.94,SSW,210,1.0,4.0,81,0.00,,,0.00,weatherlink.com 1.10,2013-09-09 00:19:00,
2013-09-08 20:34:00,57.1,52.0,29.94,SW,229,1.0,4.0,83,0.00,,,0.00,weatherlink.com 1.10,2013-09-09 00:34:00,
2013-09-08 20:49:00,56.2,52.0,29.94,SE,128,1.0,3.0,84,0.00,,,0.00,weatherlink.com 1.10,2013-09-09 00:49:00,
2013-09-08 21:04:00,55.6,51.0,29.95,WSW,242,0.0,2.0,85,0.00,,,0.00,weatherlink.com 1.10,2013-09-09 01:04:00,
2013-09-08 21:19:00,54.6,51.0,29.95,SW,224,0.0,0.0,88,0.00,,,0.00,weatherlink.com 1.10,2013-09-09 01:19:00,
2013-09-08 21:33:00,53.7,50.0,29.95,SSW,212,0.0,1.0,88,0.00,,,0.00,weatherlink.com 1.10,2013-09-09 01:33:00,
2013-09-08 21:49:00,53.2,50.0,29.95,West,267,2.0,4.0,89,0.00,,,0.00,weatherlink.com 1.10,2013-09-09 01:49:00,
2013-09-08 22:04:00,53.1,50.0,29.95,South,186,3.0,4.0,90,0.00,,,0.00,weatherlink.com 1.10,2013-09-09 02:04:00,
2013-09-08 22:19:00,52.5,50.0,29.95,SSW,204,0.0,4.0,90,0.00,,,0.00,weatherlink.com 1.10,2013-09-09 02:19:00,
2013-09-08 22:41:00,51.6,49.0,29.95,SW,221,0.0,1.0,91,0.00,,,0.00,weatherlink.com 1.10,2013-09-09 02:41:00,
2013-09-08 22:49:00,51.4,49.0,29.95,SW,221,0.0,2.0,92,0.00,,,0.00,weatherlink.com 1.10,2013-09-09 02:49:00,
2013-09-08 23:04:00,51.4,49.0,29.95,SSW,204,0.0,2.0,92,0.00,,,0.00,weatherlink.com 1.10,2013-09-09 03:04:00,
2013-09-08 23:19:00,51.2,49.0,29.95,SSW,213,0.0,1.0,93,0.00,,,0.00,weatherlink.com 1.10,2013-09-09 03:19:00,
2013-09-08 23:34:00,51.1,49.0,29.95,SSE,150,0.0,1.0,93,0.00,,,0.00,weatherlink.com 1.10,2013-09-09 03:34:00,
2013-09-08 23:49:00,51.1,49.0,29.95,SW,220,0.0,3.0,93,0.00,,,0.00,weatherlink.com 1.10,2013-09-09 03:49:00,